Time;durP1;ratioP1;P1;durP2;ratioP2;P2;SDS_P1;SDS_P2;PMS_P1;PMS_P2;Temp;Humidity;BMP_temperature;BMP_pressure;BME280_temperature;BME280_humidity;BME280_pressure;Samples;Min_cycle;Max_cycle;Signal;HPM_P1;HPM_P2
2023/08/28 00:01:28;;;;;;;;;;;;;;;17.02;89.35;100423.33;106559;1264;61250;-80
2023/08/28 00:03:54;;;;;;;;;;;;;;;17.03;89.18;100419.07;106609;1257;61264;-81
2023/08/28 00:06:21;;;;;;;;;;;;;;;17.03;89.11;100422.09;106608;1257;124988;-80
2023/08/28 00:08:47;;;;;;;;;;;;;;;17.04;89.09;100426.34;106590;1262;61360;-80
2023/08/28 00:11:13;;;;;;;;;;;;;;;17.06;88.92;100425.62;106574;1258;124880;-80
2023/08/28 00:13:40;;;;;;;;;;;;;;;17.07;88.83;100416.41;106747;1257;61148;-80
2023/08/28 00:16:06;;;;;;;;;;;;;;;17.09;88.87;100411.59;106599;1258;61360;-84
2023/08/28 00:18:33;;;;;;;;;;;;;;;17.13;88.75;100408.02;106622;1257;125129;-84
2023/08/28 00:20:59;;;;;;;;;;;;;;;17.11;88.49;100405.01;106671;1258;60648;-84
2023/08/28 00:23:26;;;;;;;;;;;;;;;17.09;88.23;100407.87;106492;1264;124923;-83
2023/08/28 00:25:52;;;;;;;;;;;;;;;17.05;88.00;100414.98;106782;1259;61425;-83
2023/08/28 00:28:19;;;;;;;;;;;;;;;17.03;88.10;100421.20;106741;1259;61179;-84
2023/08/28 00:30:45;;;;;;;;;;;;;;;17.05;88.26;100428.63;106566;1257;124922;-83
2023/08/28 00:33:12;;;;;;;;;;;;;;;17.09;88.17;100432.70;106777;1257;59292;-84
2023/08/28 00:35:38;;;;;;;;;;;;;;;17.09;88.07;100433.22;106670;1257;124809;-80
2023/08/28 00:38:04;;;;;;;;;;;;;;;17.10;87.96;100427.71;106691;1257;59523;-79
2023/08/28 00:40:31;;;;;;;;;;;;;;;17.13;88.00;100434.45;106571;1256;59373;-81
2023/08/28 00:42:58;;;;;;;;;;;;;;;17.16;87.95;100435.84;106540;1259;124888;-79
2023/08/28 00:45:25;;;;;;;;;;;;;;;17.19;87.82;100440.77;106633;1259;59763;-81
2023/08/28 00:47:51;;;;;;;;;;;;;;;17.17;87.60;100446.11;106532;1258;125075;-83
2023/08/28 00:50:18;;;;;;;;;;;;;;;17.17;87.55;100444.33;106739;1257;61368;-83
2023/08/28 00:52:44;;;;;;;;;;;;;;;17.19;87.60;100447.16;106700;1257;72387;-85
2023/08/28 00:55:11;;;;;;;;;;;;;;;17.21;87.59;100449.64;106579;1258;124586;-83
2023/08/28 00:57:37;;;;;;;;;;;;;;;17.22;87.51;100454.77;106824;1258;61276;-83
2023/08/28 01:00:05;;;;;;;;;;;;;;;17.23;87.49;100455.80;106441;1258;124797;-84
2023/08/28 01:02:32;;;;;;;;;;;;;;;17.24;87.45;100454.92;106727;1262;66288;-80
2023/08/28 01:04:58;;;;;;;;;;;;;;;17.22;87.24;100446.08;106656;1257;125059;-83
2023/08/28 01:07:25;;;;;;;;;;;;;;;17.19;87.03;100444.68;106524;1257;61475;-80
2023/08/28 01:09:52;;;;;;;;;;;;;;;17.15;86.82;100445.41;106432;1257;59837;-81
2023/08/28 01:12:24;;;;;;;;;;;;;;;17.12;86.77;100449.16;106504;1257;125221;-80
2023/08/28 01:15:09;;;;;;;;;;;;;;;17.09;86.73;100455.20;106738;1257;64824;-80
2023/08/28 01:17:36;;;;;;;;;;;;;;;17.07;86.56;100461.41;106642;1258;125154;-84
2023/08/28 01:20:04;;;;;;;;;;;;;;;17.04;86.48;100465.86;106727;1262;61366;-85
2023/08/28 01:22:46;;;;;;;;;;;;;;;16.98;86.31;100461.66;106605;1257;61186;-84
2023/08/28 01:25:12;;;;;;;;;;;;;;;16.91;86.37;100451.41;106549;1257;124763;-84
2023/08/28 01:27:40;;;;;;;;;;;;;;;16.90;86.46;100445.03;106825;1257;61367;-81
2023/08/28 01:30:10;;;;;;;;;;;;;;;16.89;86.40;100444.68;106435;1257;125112;-79
2023/08/28 01:32:37;;;;;;;;;;;;;;;16.82;86.13;100437.64;106550;1257;59419;-80
2023/08/28 01:35:05;;;;;;;;;;;;;;;16.76;86.24;100435.86;106581;1256;125443;-83
2023/08/28 01:37:34;;;;;;;;;;;;;;;16.71;86.21;100436.08;106659;1264;74560;-84
2023/08/28 01:40:01;;;;;;;;;;;;;;;16.67;86.23;100433.79;106547;1257;66190;-79
2023/08/28 01:42:27;;;;;;;;;;;;;;;16.65;86.42;100426.72;106674;1257;124712;-79
2023/08/28 01:44:54;;;;;;;;;;;;;;;16.68;86.58;100424.58;106532;1257;59783;-79
2023/08/28 01:47:22;;;;;;;;;;;;;;;16.69;86.47;100418.20;106595;1262;125186;-79
2023/08/28 01:49:48;;;;;;;;;;;;;;;16.68;86.38;100419.97;106604;1257;74531;-84
2023/08/28 01:52:14;;;;;;;;;;;;;;;16.68;86.33;100414.30;106711;1262;61190;-84
2023/08/28 01:54:41;;;;;;;;;;;;;;;16.66;86.06;100408.99;106496;1259;125436;-80
2023/08/28 01:57:07;;;;;;;;;;;;;;;16.61;85.97;100408.32;106531;1262;61296;-84
2023/08/28 01:59:34;;;;;;;;;;;;;;;16.57;85.92;100405.32;106708;1258;125006;-80
2023/08/28 02:02:00;;;;;;;;;;;;;;;16.51;85.98;100395.42;106802;1259;61173;-86
2023/08/28 02:04:27;;;;;;;;;;;;;;;16.47;85.96;100394.75;106764;1256;61270;-79
2023/08/28 02:06:53;;;;;;;;;;;;;;;16.42;86.00;100411.77;106544;1257;125415;-84
2023/08/28 02:09:20;;;;;;;;;;;;;;;16.44;86.23;100421.69;106552;1263;61343;-81
2023/08/28 02:11:46;;;;;;;;;;;;;;;16.48;86.56;100434.77;106605;1260;124835;-82
2023/08/28 02:14:13;;;;;;;;;;;;;;;16.56;86.79;100448.38;106586;1257;61380;-84
2023/08/28 02:16:39;;;;;;;;;;;;;;;16.63;86.81;100457.02;106631;1261;61266;-79
2023/08/28 02:19:06;;;;;;;;;;;;;;;16.68;86.78;100460.90;106735;1257;124982;-80
2023/08/28 02:21:34;;;;;;;;;;;;;;;16.72;86.69;100467.42;106675;1257;59653;-80
2023/08/28 02:24:00;;;;;;;;;;;;;;;16.75;86.60;100458.91;106640;1262;125199;-79
2023/08/28 02:26:27;;;;;;;;;;;;;;;16.78;86.60;100450.04;106532;1259;61352;-83
2023/08/28 02:28:53;;;;;;;;;;;;;;;16.81;86.60;100451.27;106682;1257;125395;-83
2023/08/28 02:31:20;;;;;;;;;;;;;;;16.84;86.74;100461.38;106797;1261;61357;-83
2023/08/28 02:33:46;;;;;;;;;;;;;;;16.87;86.53;100459.06;106718;1258;61278;-83
2023/08/28 02:36:13;;;;;;;;;;;;;;;16.89;86.49;100462.59;106664;1258;125131;-80
2023/08/28 02:38:39;;;;;;;;;;;;;;;16.93;86.54;100456.55;106632;1258;75926;-84
2023/08/28 02:41:09;;;;;;;;;;;;;;;16.95;86.50;100452.45;106550;1257;125125;-80
2023/08/28 02:43:36;;;;;;;;;;;;;;;16.98;86.39;100463.95;106735;1257;72714;-81
2023/08/28 02:46:02;;;;;;;;;;;;;;;16.97;86.30;100475.66;106720;1257;61154;-84
2023/08/28 02:48:29;;;;;;;;;;;;;;;16.97;86.11;100480.45;106646;1259;125198;-84
2023/08/28 02:50:59;;;;;;;;;;;;;;;16.95;86.11;100488.62;106691;1258;61270;-84
2023/08/28 02:53:25;;;;;;;;;;;;;;;16.94;86.02;100485.26;106607;1257;126126;-80
2023/08/28 02:56:11;;;;;;;;;;;;;;;16.94;86.02;100485.96;106694;1257;61226;-81
2023/08/28 02:58:37;;;;;;;;;;;;;;;16.93;85.87;100487.03;106629;1257;61279;-80
2023/08/28 03:01:04;;;;;;;;;;;;;;;16.92;85.94;100475.52;106463;1257;124900;-80
2023/08/28 03:03:33;;;;;;;;;;;;;;;16.92;85.89;100466.11;106550;1260;74386;-80
2023/08/28 03:06:01;;;;;;;;;;;;;;;16.94;85.99;100471.08;106552;1258;124796;-80
2023/08/28 03:08:28;;;;;;;;;;;;;;;16.96;86.04;100480.98;106751;1261;72699;-80
2023/08/28 03:10:55;;;;;;;;;;;;;;;16.99;86.09;100495.69;106603;1257;126171;-80
2023/08/28 03:13:21;;;;;;;;;;;;;;;16.99;85.84;100494.98;106696;1257;59617;-80
2023/08/28 03:15:48;;;;;;;;;;;;;;;16.97;85.78;100484.00;106659;1260;59646;-80
2023/08/28 03:18:14;;;;;;;;;;;;;;;16.97;85.75;100472.48;106577;1259;124935;-80
2023/08/28 03:20:41;;;;;;;;;;;;;;;16.97;85.74;100475.66;106640;1257;61241;-80
2023/08/28 03:23:09;;;;;;;;;;;;;;;16.99;85.71;100479.73;106674;1257;124982;-80
2023/08/28 03:25:36;;;;;;;;;;;;;;;16.98;85.51;100476.02;106615;1257;61327;-80
2023/08/28 03:28:07;;;;;;;;;;;;;;;16.95;85.42;100471.06;106777;1258;74688;-79
2023/08/28 03:30:33;;;;;;;;;;;;;;;16.92;85.27;100456.72;106479;1258;126796;-79
2023/08/28 03:33:00;;;;;;;;;;;;;;;16.90;85.33;100443.80;106582;1257;72684;-79
2023/08/28 03:35:26;;;;;;;;;;;;;;;16.91;85.34;100432.80;106566;1257;125060;-80
2023/08/28 03:37:53;;;;;;;;;;;;;;;16.91;85.45;100442.73;106576;1258;61278;-83
2023/08/28 03:40:19;;;;;;;;;;;;;;;16.93;85.52;100451.23;106540;1257;61311;-82
2023/08/28 03:42:46;;;;;;;;;;;;;;;16.91;85.17;100455.48;106400;1258;125118;-83
2023/08/28 03:45:12;;;;;;;;;;;;;;;16.87;84.90;100462.26;106545;1257;59304;-81
2023/08/28 03:47:39;;;;;;;;;;;;;;;16.81;84.83;100463.14;106550;1260;125009;-81
2023/08/28 03:50:05;;;;;;;;;;;;;;;16.78;84.81;100460.48;106764;1258;59537;-81
2023/08/28 03:52:32;;;;;;;;;;;;;;;16.76;84.76;100464.58;106722;1259;75504;-84
2023/08/28 03:54:58;;;;;;;;;;;;;;;16.73;84.91;100471.15;106592;1258;125171;-81
2023/08/28 03:57:25;;;;;;;;;;;;;;;16.73;84.88;100474.52;106662;1257;71454;-80
2023/08/28 03:59:52;;;;;;;;;;;;;;;16.73;84.94;100477.16;106582;1257;124905;-79
2023/08/28 04:02:21;;;;;;;;;;;;;;;16.74;85.04;100478.77;106732;1258;61340;-83
2023/08/28 04:04:47;;;;;;;;;;;;;;;16.75;85.01;100483.90;106679;1261;61442;-78
2023/08/28 04:07:23;;;;;;;;;;;;;;;16.76;85.03;100484.95;106505;1257;125067;-79
2023/08/28 04:09:50;;;;;;;;;;;;;;;16.77;84.96;100485.30;106799;1261;71846;-78
2023/08/28 04:12:16;;;;;;;;;;;;;;;16.78;84.98;100486.36;106470;1263;125302;-79
2023/08/28 04:14:43;;;;;;;;;;;;;;;16.79;85.07;100481.59;106758;1262;61141;-84
2023/08/28 04:17:09;;;;;;;;;;;;;;;16.83;85.10;100483.54;106451;1257;125273;-83
2023/08/28 04:19:36;;;;;;;;;;;;;;;16.87;85.09;100481.02;106825;1256;61175;-84
2023/08/28 04:22:02;;;;;;;;;;;;;;;16.90;85.13;100484.02;106688;1258;61318;-79
2023/08/28 04:24:29;;;;;;;;;;;;;;;16.90;85.09;100482.43;106578;1262;126036;-79
2023/08/28 04:26:55;;;;;;;;;;;;;;;16.94;85.13;100478.69;106896;1257;61340;-79
2023/08/28 04:29:22;;;;;;;;;;;;;;;16.94;85.05;100478.16;106599;1261;124947;-79
2023/08/28 04:31:48;;;;;;;;;;;;;;;16.92;84.80;100477.63;106629;1262;61269;-78
2023/08/28 04:34:15;;;;;;;;;;;;;;;17.03;85.54;100476.51;106477;1262;61368;-79
2023/08/28 04:36:41;;;;;;;;;;;;;;;17.51;86.20;100477.79;106564;1262;124922;-79
2023/08/28 04:39:08;;;;;;;;;;;;;;;17.58;84.67;100485.53;106610;1259;61327;-81
2023/08/28 04:41:34;;;;;;;;;;;;;;;17.51;84.04;100490.55;106471;1257;125134;-85
2023/08/28 04:44:01;;;;;;;;;;;;;;;17.45;83.86;100493.61;106619;1256;61183;-85
2023/08/28 04:46:28;;;;;;;;;;;;;;;17.42;83.89;100494.70;106783;1261;73157;-85
2023/08/28 04:48:54;;;;;;;;;;;;;;;17.41;83.77;100498.79;106634;1261;124917;-84
2023/08/28 04:51:21;;;;;;;;;;;;;;;17.39;83.59;100505.90;106672;1262;61236;-84
2023/08/28 04:53:47;;;;;;;;;;;;;;;17.35;83.48;100508.23;106576;1262;124986;-84
2023/08/28 04:56:13;;;;;;;;;;;;;;;17.29;83.36;100515.20;106550;1258;61284;-79
2023/08/28 04:58:40;;;;;;;;;;;;;;;17.23;83.34;100517.70;106682;1264;61330;-79
2023/08/28 05:01:07;;;;;;;;;;;;;;;17.21;83.46;100517.90;106615;1257;125067;-78
2023/08/28 05:03:33;;;;;;;;;;;;;;;17.36;84.09;100512.66;106564;1259;61354;-79
2023/08/28 05:06:00;;;;;;;;;;;;;;;18.23;86.60;100507.86;106603;1257;125379;-85
2023/08/28 05:08:26;;;;;;;;;;;;;;;19.20;86.01;100503.86;106581;1264;61266;-77
2023/08/28 05:10:53;;;;;;;;;;;;;;;20.53;86.82;100501.93;106455;1263;125452;-78
2023/08/28 05:13:20;;;;;;;;;;;;;;;22.43;86.32;100497.97;108906;1257;59313;-78
2023/08/28 05:15:46;;;;;;;;;;;;;;;23.55;82.22;100496.48;108826;1257;59045;-78
2023/08/28 05:18:13;;;;;;;;;;;;;;;23.84;77.84;100498.95;108785;1257;124753;-78
2023/08/28 05:20:40;;;;;;;;;;;;;;;23.64;75.33;100498.52;108937;1258;65613;-84
2023/08/28 05:23:07;;;;;;;;;;;;;;;23.26;74.33;100494.70;108730;1257;125017;-84
2023/08/28 05:25:33;;;;;;;;;;;;;;;22.90;73.80;100496.15;108903;1257;58941;-78
2023/08/28 05:28:00;;;;;;;;;;;;;;;22.59;73.74;100498.13;108841;1258;59072;-84
2023/08/28 05:30:26;;;;;;;;;;;;;;;22.33;73.79;100503.33;108788;1259;125763;-83
2023/08/28 05:32:53;;;;;;;;;;;;;;;22.09;73.62;100504.50;108552;1259;61282;-84
2023/08/28 05:35:19;;;;;;;;;;;;;;;21.88;73.92;100507.52;106580;1259;125011;-84
2023/08/28 05:37:46;;;;;;;;;;;;;;;21.71;74.05;100508.84;106581;1263;60131;-85
2023/08/28 05:40:14;;;;;;;;;;;;;;;21.57;74.06;100513.48;106587;1259;59286;-85
2023/08/28 05:42:42;;;;;;;;;;;;;;;21.40;74.16;100516.17;106074;1262;124774;-83
2023/08/28 05:45:09;;;;;;;;;;;;;;;21.28;74.20;100517.89;105911;1262;66478;-85
2023/08/28 05:47:40;;;;;;;;;;;;;;;21.16;74.52;100519.92;106852;1257;125074;-83
2023/08/28 05:50:06;;;;;;;;;;;;;;;21.05;74.65;100522.66;107010;1260;59832;-83
2023/08/28 05:52:34;;;;;;;;;;;;;;;20.97;74.75;100524.27;107052;1257;59359;-83
2023/08/28 05:55:00;;;;;;;;;;;;;;;20.90;74.81;100526.02;106590;1258;125331;-83
2023/08/28 05:57:27;;;;;;;;;;;;;;;20.84;74.78;100521.34;106742;1260;61388;-83
2023/08/28 05:59:53;;;;;;;;;;;;;;;20.74;74.86;100522.42;106651;1262;125278;-82
2023/08/28 06:02:20;;;;;;;;;;;;;;;20.66;74.98;100521.52;106370;1258;61383;-78
2023/08/28 06:04:49;;;;;;;;;;;;;;;20.61;75.36;100518.77;106646;1258;61194;-81
2023/08/28 06:07:15;;;;;;;;;;;;;;;20.52;75.35;100520.70;106489;1258;125780;-83
2023/08/28 06:09:42;;;;;;;;;;;;;;;20.44;75.26;100520.86;106504;1258;61228;-85
2023/08/28 06:12:08;;;;;;;;;;;;;;;20.35;75.22;100511.57;106588;1260;125366;-82
2023/08/28 06:14:36;;;;;;;;;;;;;;;20.31;75.47;100507.20;106657;1258;59382;-86
2023/08/28 06:17:05;;;;;;;;;;;;;;;20.29;75.62;100503.33;106539;1259;124945;-79
2023/08/28 06:19:31;;;;;;;;;;;;;;;20.27;75.59;100505.68;106640;1261;74813;-79
2023/08/28 06:22:04;;;;;;;;;;;;;;;20.26;75.66;100504.45;106883;1259;65037;-81
2023/08/28 06:24:34;;;;;;;;;;;;;;;20.23;75.70;100508.07;106621;1260;124960;-81
2023/08/28 06:27:00;;;;;;;;;;;;;;;20.17;75.63;100517.63;106758;1258;61367;-85
2023/08/28 06:29:27;;;;;;;;;;;;;;;20.11;75.47;100520.95;106432;1260;125030;-81
2023/08/28 06:31:53;;;;;;;;;;;;;;;20.06;75.26;100521.39;106689;1259;74718;-81
2023/08/28 06:34:20;;;;;;;;;;;;;;;20.03;75.29;100526.59;106835;1259;61234;-80
2023/08/28 06:36:49;;;;;;;;;;;;;;;20.01;75.12;100530.73;106548;1259;126546;-80
2023/08/28 06:39:15;;;;;;;;;;;;;;;19.98;75.05;100526.34;106708;1258;61217;-84
2023/08/28 06:41:42;;;;;;;;;;;;;;;19.97;75.00;100533.30;106593;1259;125355;-85
2023/08/28 06:44:08;;;;;;;;;;;;;;;19.97;75.23;100539.17;106784;1259;59356;-86
2023/08/28 06:46:36;;;;;;;;;;;;;;;19.99;75.28;100540.73;106808;1259;59906;-84
2023/08/28 06:49:04;;;;;;;;;;;;;;;20.00;75.06;100537.69;106482;1259;124998;-85
2023/08/28 06:51:31;;;;;;;;;;;;;;;19.98;74.75;100538.79;106599;1259;59846;-84
2023/08/28 06:53:57;;;;;;;;;;;;;;;19.97;74.74;100537.92;106629;1259;125105;-84
2023/08/28 06:56:24;;;;;;;;;;;;;;;19.98;74.73;100543.60;106696;1265;74705;-84
2023/08/28 06:58:50;;;;;;;;;;;;;;;19.99;74.76;100546.98;106676;1259;61377;-84
2023/08/28 07:01:17;;;;;;;;;;;;;;;19.98;74.66;100542.90;106708;1259;71580;-84
2023/08/28 07:03:44;;;;;;;;;;;;;;;19.99;74.81;100547.15;106735;1259;61379;-86
2023/08/28 07:06:11;;;;;;;;;;;;;;;20.00;74.94;100553.55;106700;1262;124251;-86
2023/08/28 07:08:37;;;;;;;;;;;;;;;20.00;74.80;100553.91;106700;1257;74907;-84
2023/08/28 07:11:04;;;;;;;;;;;;;;;19.96;74.66;100553.79;106596;1259;125567;-84
2023/08/28 07:13:30;;;;;;;;;;;;;;;19.92;74.73;100556.00;106636;1262;72855;-85
2023/08/28 07:15:58;;;;;;;;;;;;;;;19.90;74.69;100554.42;106826;1258;61182;-84
2023/08/28 07:18:28;;;;;;;;;;;;;;;19.92;74.79;100556.89;106513;1259;125894;-84
2023/08/28 07:20:55;;;;;;;;;;;;;;;19.94;74.79;100558.45;106721;1258;73141;-86
2023/08/28 07:23:22;;;;;;;;;;;;;;;19.98;74.84;100558.03;106567;1260;125503;-85
2023/08/28 07:25:49;;;;;;;;;;;;;;;20.03;74.77;100560.09;106661;1257;72736;-80
2023/08/28 07:28:24;;;;;;;;;;;;;;;20.06;74.71;100564.48;106640;1259;61381;-83
2023/08/28 07:30:54;;;;;;;;;;;;;;;20.11;74.51;100564.77;108258;1259;124831;-81
2023/08/28 07:33:21;;;;;;;;;;;;;;;20.16;74.29;100562.17;108844;1258;74798;-81
2023/08/28 07:35:47;;;;;;;;;;;;;;;20.18;74.25;100562.13;108797;1256;125397;-84
2023/08/28 07:38:15;;;;;;;;;;;;;;;20.26;74.41;100563.62;108859;1256;59016;-84
2023/08/28 07:40:41;;;;;;;;;;;;;;;20.31;74.24;100563.86;107186;1265;59545;-84
2023/08/28 07:43:08;;;;;;;;;;;;;;;20.37;74.21;100568.41;106502;1262;124789;-82
2023/08/28 07:45:34;;;;;;;;;;;;;;;20.41;74.14;100562.09;106073;1262;779459;-84
2023/08/28 07:48:01;;;;;;;;;;;;;;;20.49;74.50;100563.02;106758;1262;125552;-84
2023/08/28 07:50:28;;;;;;;;;;;;;;;20.55;74.30;100560.58;106478;1256;72730;-79
2023/08/28 07:52:55;;;;;;;;;;;;;;;20.58;74.05;100568.89;106605;1260;61349;-84
2023/08/28 07:55:21;;;;;;;;;;;;;;;20.61;73.55;100577.78;106607;1260;125317;-84
2023/08/28 07:57:48;;;;;;;;;;;;;;;20.63;73.15;100577.91;106786;1260;61247;-83
2023/08/28 08:00:20;;;;;;;;;;;;;;;20.69;72.99;100577.45;106563;1260;125622;-85
2023/08/28 08:02:49;;;;;;;;;;;;;;;20.83;73.14;100578.77;106671;1259;71466;-79
2023/08/28 08:05:16;;;;;;;;;;;;;;;21.00;72.77;100586.13;106604;1260;124311;-79
2023/08/28 08:07:42;;;;;;;;;;;;;;;21.25;72.85;100591.66;106743;1262;61181;-79
2023/08/28 08:10:09;;;;;;;;;;;;;;;21.55;72.77;100596.02;106779;1258;73405;-79
2023/08/28 08:12:36;;;;;;;;;;;;;;;21.70;72.00;100599.77;106622;1260;124119;-79
2023/08/28 08:15:03;;;;;;;;;;;;;;;21.84;71.55;100603.73;106653;1260;74182;-82
2023/08/28 08:17:30;;;;;;;;;;;;;;;22.05;71.25;100603.95;106571;1260;124892;-78
2023/08/28 08:19:56;;;;;;;;;;;;;;;22.27;70.59;100608.05;106760;1262;61388;-78
2023/08/28 08:22:22;;;;;;;;;;;;;;;22.35;69.74;100608.23;106732;1260;61267;-78
2023/08/28 08:24:49;;;;;;;;;;;;;;;22.22;69.15;100604.42;106637;1260;124799;-78
2023/08/28 08:27:15;;;;;;;;;;;;;;;22.09;69.21;100597.40;106538;1263;61398;-78
2023/08/28 08:29:42;;;;;;;;;;;;;;;22.02;69.15;100596.34;106692;1262;125600;-78
2023/08/28 08:32:09;;;;;;;;;;;;;;;22.11;69.64;100598.25;106772;1259;61624;-84
2023/08/28 08:34:36;;;;;;;;;;;;;;;22.31;69.49;100599.02;106753;1259;61552;-82
2023/08/28 08:37:02;;;;;;;;;;;;;;;22.42;69.31;100601.44;106631;1259;124782;-79
2023/08/28 08:39:30;;;;;;;;;;;;;;;22.41;68.52;100608.78;106598;1261;72711;-82
2023/08/28 08:41:56;;;;;;;;;;;;;;;22.23;67.94;100609.40;106537;1259;125009;-82
2023/08/28 08:44:23;;;;;;;;;;;;;;;22.09;68.19;100613.67;106574;1259;59421;-83
2023/08/28 08:46:49;;;;;;;;;;;;;;;21.95;67.88;100617.39;106638;1259;75269;-83
2023/08/28 08:49:18;;;;;;;;;;;;;;;21.76;67.51;100623.77;106511;1259;124230;-84
2023/08/28 08:51:44;;;;;;;;;;;;;;;21.58;67.48;100624.69;106507;1259;72740;-84
2023/08/28 08:54:18;;;;;;;;;;;;;;;21.51;67.84;100629.49;106720;1259;124169;-82
2023/08/28 08:56:46;;;;;;;;;;;;;;;21.50;68.15;100627.18;106480;1263;61193;-82
2023/08/28 08:59:12;;;;;;;;;;;;;;;21.46;68.02;100624.95;106294;1260;124385;-80
2023/08/28 09:01:39;;;;;;;;;;;;;;;21.41;67.96;100623.79;106506;1259;61382;-80
2023/08/28 09:04:05;;;;;;;;;;;;;;;21.31;67.58;100625.08;106551;1263;72999;-80
2023/08/28 09:06:32;;;;;;;;;;;;;;;21.23;67.39;100620.41;106380;1259;124556;-86
2023/08/28 09:08:59;;;;;;;;;;;;;;;21.13;67.25;100619.19;106481;1260;61377;-86
2023/08/28 09:11:25;;;;;;;;;;;;;;;21.07;67.46;100619.86;106250;1266;126239;-85
2023/08/28 09:13:52;;;;;;;;;;;;;;;20.99;67.20;100623.05;106596;1260;61258;-84
2023/08/28 09:16:18;;;;;;;;;;;;;;;20.87;66.87;100622.40;106594;1260;72803;-85
2023/08/28 09:18:46;;;;;;;;;;;;;;;20.74;66.76;100624.97;106662;1260;125118;-84
2023/08/28 09:21:12;;;;;;;;;;;;;;;20.62;66.41;100631.60;106511;1264;61270;-84
2023/08/28 09:23:49;;;;;;;;;;;;;;;20.53;66.77;100634.96;106461;1259;126137;-82
2023/08/28 09:26:18;;;;;;;;;;;;;;;20.51;67.05;100637.84;106558;1260;64825;-83
2023/08/28 09:28:57;;;;;;;;;;;;;;;20.49;67.10;100638.74;106444;1259;73898;-84
2023/08/28 09:31:37;;;;;;;;;;;;;;;20.47;66.80;100635.23;106342;1259;123968;-86
2023/08/28 09:34:04;;;;;;;;;;;;;;;20.45;66.66;100635.08;106454;1259;61438;-86
2023/08/28 09:36:37;;;;;;;;;;;;;;;20.49;66.78;100638.06;106432;1263;125911;-86
2023/08/28 09:39:04;;;;;;;;;;;;;;;20.53;66.85;100632.80;106391;1259;64862;-85
2023/08/28 09:41:41;;;;;;;;;;;;;;;20.61;66.95;100635.36;106381;1263;124992;-86
2023/08/28 09:44:08;;;;;;;;;;;;;;;20.69;66.74;100635.05;106486;1264;61180;-86
2023/08/28 09:46:37;;;;;;;;;;;;;;;20.79;67.06;100633.95;106444;1259;61328;-89
2023/08/28 09:49:08;;;;;;;;;;;;;;;20.89;66.61;100643.75;106375;1259;124922;-88
2023/08/28 09:51:39;;;;;;;;;;;;;;;20.95;66.45;100640.45;106462;1259;64786;-92
2023/08/28 09:54:09;;;;;;;;;;;;;;;21.02;66.56;100637.09;106103;1261;124928;-93
2023/08/28 09:56:42;;;;;;;;;;;;;;;21.12;66.54;100635.98;106649;1259;61266;-96
2023/08/28 09:59:13;;;;;;;;;;;;;;;21.19;66.39;100637.29;106847;1263;124556;-91
2023/08/28 10:01:40;;;;;;;;;;;;;;;21.25;65.88;100638.23;106510;1259;75725;-90
2023/08/28 10:04:08;;;;;;;;;;;;;;;21.26;65.15;100631.60;106454;1261;67718;-90
2023/08/28 10:06:35;;;;;;;;;;;;;;;21.32;65.26;100637.00;106517;1264;124144;-87
2023/08/28 10:09:05;;;;;;;;;;;;;;;21.46;65.68;100638.70;107941;1263;59986;-96
2023/08/28 10:12:10;;;;;;;;;;;;;;;21.62;65.41;100634.42;106562;1259;124322;-93
2023/08/28 10:14:37;;;;;;;;;;;;;;;21.70;65.28;100632.10;106456;1260;73718;-92
2023/08/28 10:17:04;;;;;;;;;;;;;;;21.82;65.36;100628.43;106278;1265;124391;-91
2023/08/28 10:19:36;;;;;;;;;;;;;;;21.90;64.67;100627.89;106780;1260;72723;-95
2023/08/28 10:31:41;;;;;;;;;;;;;;;22.07;63.68;100630.87;105745;1267;66018;-93
2023/08/28 10:34:10;;;;;;;;;;;;;;;22.15;63.90;100630.13;105752;1269;73998;-92
2023/08/28 10:50:17;;;;;;;;;;;;;;;22.60;61.88;100624.90;84728;1295;72886;-94
2023/08/28 10:59:55;;;;;;;;;;;;;;;23.28;61.55;100636.45;106156;1286;73207;-96
2023/08/28 11:23:54;;;;;;;;;;;;;;;24.24;57.98;100660.73;104580;1297;123941;-95
2023/08/28 11:26:34;;;;;;;;;;;;;;;24.34;57.40;100656.30;106365;1269;61254;-92
2023/08/28 11:29:14;;;;;;;;;;;;;;;24.44;57.33;100654.35;107014;1262;79074;-94
2023/08/28 11:32:22;;;;;;;;;;;;;;;24.54;57.28;100660.27;106632;1272;124291;-96
2023/08/28 11:35:09;;;;;;;;;;;;;;;24.58;56.67;100655.14;106289;1272;82221;-90
2023/08/28 11:37:39;;;;;;;;;;;;;;;24.55;56.70;100650.40;105490;1267;124163;-89
2023/08/28 11:40:08;;;;;;;;;;;;;;;24.53;56.68;100652.61;105405;1274;61297;-89
2023/08/28 11:42:35;;;;;;;;;;;;;;;24.53;56.22;100651.54;105536;1270;124298;-89
2023/08/28 11:45:06;;;;;;;;;;;;;;;24.57;56.45;100650.50;105753;1270;74528;-90
2023/08/28 11:53:28;;;;;;;;;;;;;;;25.09;55.39;100647.95;101075;1264;86323;-95
2023/08/28 12:02:17;;;;;;;;;;;;;;;25.04;53.83;100641.46;96700;1266;77764;-94
2023/08/28 12:04:43;;;;;;;;;;;;;;;25.01;53.56;100643.73;106802;1271;72408;-96
2023/08/28 12:07:30;;;;;;;;;;;;;;;24.94;53.07;100640.20;106499;1270;123411;-95
2023/08/28 12:12:39;;;;;;;;;;;;;;;24.93;52.69;100646.34;105796;1272;124547;-78
2023/08/28 12:15:08;;;;;;;;;;;;;;;24.88;52.52;100649.77;106055;1268;64697;-87
2023/08/28 12:17:37;;;;;;;;;;;;;;;24.82;52.47;100651.23;105933;1269;72269;-88
2023/08/28 12:20:10;;;;;;;;;;;;;;;24.72;52.14;100650.70;105791;1269;125100;-87
2023/08/28 12:22:43;;;;;;;;;;;;;;;24.63;52.04;100650.65;106645;1269;61344;-86
2023/08/28 12:25:11;;;;;;;;;;;;;;;24.57;52.05;100650.30;105861;1273;124199;-87
2023/08/28 12:27:38;;;;;;;;;;;;;;;24.60;52.27;100654.35;105984;1273;66216;-86
2023/08/28 12:30:05;;;;;;;;;;;;;;;24.62;52.16;100652.83;105982;1273;72725;-86
2023/08/28 12:32:31;;;;;;;;;;;;;;;24.66;52.02;100651.27;105887;1273;59860;-86
2023/08/28 12:35:08;;;;;;;;;;;;;;;24.67;51.77;100648.73;105868;1270;59884;-86
2023/08/28 12:37:35;;;;;;;;;;;;;;;24.71;51.97;100644.27;106011;1269;124317;-86
2023/08/28 12:40:10;;;;;;;;;;;;;;;24.70;51.58;100650.39;106309;1273;64991;-86
2023/08/28 12:42:39;;;;;;;;;;;;;;;24.68;51.50;100648.68;106246;1268;124576;-86
2023/08/28 12:45:05;;;;;;;;;;;;;;;24.69;51.45;100652.41;106234;1272;59594;-86
2023/08/28 12:47:32;;;;;;;;;;;;;;;24.73;51.45;100649.77;106114;1268;59820;-86
2023/08/28 12:49:59;;;;;;;;;;;;;;;24.83;51.08;100643.67;105956;1273;124608;-85
2023/08/28 12:52:25;;;;;;;;;;;;;;;24.96;50.64;100645.70;105784;1270;66084;-86
2023/08/28 12:54:57;;;;;;;;;;;;;;;25.16;50.73;100645.86;105641;1271;124404;-88
2023/08/28 12:57:38;;;;;;;;;;;;;;;25.39;50.41;100648.83;105861;1274;61301;-86
2023/08/28 13:00:07;;;;;;;;;;;;;;;25.60;50.37;100648.55;105757;1273;60341;-89
2023/08/28 13:02:34;;;;;;;;;;;;;;;25.76;50.15;100651.52;105812;1276;73942;-86
2023/08/28 13:05:01;;;;;;;;;;;;;;;25.91;49.87;100653.64;105652;1269;65014;-87
2023/08/28 13:07:28;;;;;;;;;;;;;;;25.96;49.45;100658.86;105646;1271;124410;-83
2023/08/28 13:09:55;;;;;;;;;;;;;;;25.87;49.01;100654.13;105707;1270;61299;-82
2023/08/28 13:12:21;;;;;;;;;;;;;;;25.85;49.10;100655.33;105783;1272;124330;-81
2023/08/28 13:14:48;;;;;;;;;;;;;;;25.86;49.24;100662.63;105825;1269;73569;-81
2023/08/28 13:17:15;;;;;;;;;;;;;;;25.92;49.28;100666.90;105951;1268;61298;-81
2023/08/28 13:19:43;;;;;;;;;;;;;;;26.00;49.09;100666.06;105758;1270;124648;-82
2023/08/28 13:22:10;;;;;;;;;;;;;;;26.12;48.65;100667.35;105844;1270;61418;-82
2023/08/28 13:24:36;;;;;;;;;;;;;;;26.21;48.71;100667.52;105828;1269;124728;-82
2023/08/28 13:27:06;;;;;;;;;;;;;;;26.31;48.59;100669.63;105696;1270;74724;-82
2023/08/28 13:29:32;;;;;;;;;;;;;;;26.37;48.92;100668.11;105839;1270;64868;-85
2023/08/28 13:31:59;;;;;;;;;;;;;;;26.34;48.67;100676.89;105720;1272;124308;-84
2023/08/28 13:34:25;;;;;;;;;;;;;;;26.14;48.39;100683.80;105742;1268;61387;-83